sensor_id;sensor_type;location;lat;lon;timestamp;pressure;altitude;pressure_sealevel;temperature;humidity
61874;BME280;49692;55.052;73.310;2022-10-16T00:01:39;100683.75;;;10.71;76.49
61874;BME280;49692;55.052;73.310;2022-10-16T00:04:09;100689.00;;;10.71;76.75
61874;BME280;49692;55.052;73.310;2022-10-16T00:06:36;100691.56;;;10.74;76.17
61874;BME280;49692;55.052;73.310;2022-10-16T00:09:03;100684.69;;;10.68;76.16
61874;BME280;49692;55.052;73.310;2022-10-16T00:11:33;100696.81;;;10.74;76.37
61874;BME280;49692;55.052;73.310;2022-10-16T00:14:06;100685.47;;;10.72;76.26
61874;BME280;49692;55.052;73.310;2022-10-16T00:16:34;100683.84;;;10.68;75.98
61874;BME280;49692;55.052;73.310;2022-10-16T00:19:01;100678.91;;;10.55;76.49
61874;BME280;49692;55.052;73.310;2022-10-16T00:21:29;100679.75;;;10.57;77.99
61874;BME280;49692;55.052;73.310;2022-10-16T00:23:59;100673.88;;;10.48;77.38
61874;BME280;49692;55.052;73.310;2022-10-16T00:26:29;100683.06;;;10.33;78.07
61874;BME280;49692;55.052;73.310;2022-10-16T00:28:59;100679.00;;;10.21;78.02
61874;BME280;49692;55.052;73.310;2022-10-16T00:31:26;100685.16;;;10.20;77.96
61874;BME280;49692;55.052;73.310;2022-10-16T00:33:53;100692.22;;;10.18;77.87
61874;BME280;49692;55.052;73.310;2022-10-16T00:36:21;100684.50;;;10.11;77.96
61874;BME280;49692;55.052;73.310;2022-10-16T00:38:53;100684.44;;;10.14;78.08
61874;BME280;49692;55.052;73.310;2022-10-16T00:41:23;100674.00;;;10.11;78.59
61874;BME280;49692;55.052;73.310;2022-10-16T00:43:55;100683.63;;;10.11;79.04
61874;BME280;49692;55.052;73.310;2022-10-16T00:46:42;100674.22;;;10.02;79.42
61874;BME280;49692;55.052;73.310;2022-10-16T00:49:15;100676.97;;;9.97;79.17
61874;BME280;49692;55.052;73.310;2022-10-16T00:51:49;100667.50;;;9.92;79.63
61874;BME280;49692;55.052;73.310;2022-10-16T00:54:27;100665.88;;;9.86;80.48
61874;BME280;49692;55.052;73.310;2022-10-16T00:56:56;100665.19;;;9.79;80.20
61874;BME280;49692;55.052;73.310;2022-10-16T00:59:31;100671.41;;;9.75;80.92
61874;BME280;49692;55.052;73.310;2022-10-16T01:02:00;100688.19;;;9.69;80.71
61874;BME280;49692;55.052;73.310;2022-10-16T01:04:37;100677.56;;;9.74;80.11
61874;BME280;49692;55.052;73.310;2022-10-16T01:13:10;100673.28;;;9.70;79.50
61874;BME280;49692;55.052;73.310;2022-10-16T01:21:06;100692.47;;;9.74;78.37
61874;BME280;49692;55.052;73.310;2022-10-16T01:23:59;100677.16;;;9.55;79.47
61874;BME280;49692;55.052;73.310;2022-10-16T01:32:23;100689.13;;;9.67;78.22
61874;BME280;49692;55.052;73.310;2022-10-16T01:35:27;100680.25;;;9.71;78.11
61874;BME280;49692;55.052;73.310;2022-10-16T01:38:15;100671.28;;;9.80;77.95
61874;BME280;49692;55.052;73.310;2022-10-16T01:40:59;100666.13;;;9.77;77.72
61874;BME280;49692;55.052;73.310;2022-10-16T01:43:33;100660.88;;;9.77;77.94
61874;BME280;49692;55.052;73.310;2022-10-16T01:46:02;100656.53;;;9.76;77.94
61874;BME280;49692;55.052;73.310;2022-10-16T01:48:31;100660.56;;;9.89;77.20
61874;BME280;49692;55.052;73.310;2022-10-16T01:51:19;100657.53;;;10.05;76.76
61874;BME280;49692;55.052;73.310;2022-10-16T01:53:52;100667.03;;;10.09;76.66
61874;BME280;49692;55.052;73.310;2022-10-16T01:56:20;100670.63;;;10.06;75.37
61874;BME280;49692;55.052;73.310;2022-10-16T01:58:57;100673.88;;;10.16;75.41
61874;BME280;49692;55.052;73.310;2022-10-16T02:01:39;100671.03;;;10.24;74.67
61874;BME280;49692;55.052;73.310;2022-10-16T02:04:34;100664.63;;;10.34;74.85
61874;BME280;49692;55.052;73.310;2022-10-16T02:07:02;100656.16;;;10.23;73.69
61874;BME280;49692;55.052;73.310;2022-10-16T02:09:30;100649.97;;;10.25;73.83
61874;BME280;49692;55.052;73.310;2022-10-16T02:12:06;100659.44;;;10.31;73.99
61874;BME280;49692;55.052;73.310;2022-10-16T02:14:38;100651.59;;;10.29;73.28
61874;BME280;49692;55.052;73.310;2022-10-16T02:17:19;100649.66;;;10.36;73.47
61874;BME280;49692;55.052;73.310;2022-10-16T02:19:48;100644.59;;;10.30;73.73
61874;BME280;49692;55.052;73.310;2022-10-16T02:22:24;100653.25;;;10.34;73.45
61874;BME280;49692;55.052;73.310;2022-10-16T02:27:46;100657.34;;;10.44;72.56
61874;BME280;49692;55.052;73.310;2022-10-16T02:33:03;100650.34;;;10.44;72.26
61874;BME280;49692;55.052;73.310;2022-10-16T02:36:43;100658.16;;;10.46;72.14
61874;BME280;49692;55.052;73.310;2022-10-16T02:40:05;100658.13;;;10.77;71.57
61874;BME280;49692;55.052;73.310;2022-10-16T02:43:06;100653.84;;;10.75;70.02
61874;BME280;49692;55.052;73.310;2022-10-16T02:45:49;100660.28;;;10.65;69.98
61874;BME280;49692;55.052;73.310;2022-10-16T02:48:33;100666.34;;;10.67;71.01
61874;BME280;49692;55.052;73.310;2022-10-16T02:52:00;100652.97;;;10.74;69.39
61874;BME280;49692;55.052;73.310;2022-10-16T02:55:06;100660.28;;;10.65;69.53
61874;BME280;49692;55.052;73.310;2022-10-16T02:59:15;100663.97;;;10.87;69.35
61874;BME280;49692;55.052;73.310;2022-10-16T03:01:53;100657.09;;;10.83;69.46
61874;BME280;49692;55.052;73.310;2022-10-16T03:04:34;100669.16;;;10.90;68.97
61874;BME280;49692;55.052;73.310;2022-10-16T03:07:04;100661.25;;;10.90;68.79
61874;BME280;49692;55.052;73.310;2022-10-16T03:09:32;100662.00;;;10.96;68.40
61874;BME280;49692;55.052;73.310;2022-10-16T03:12:18;100660.03;;;11.02;68.10
61874;BME280;49692;55.052;73.310;2022-10-16T03:15:47;100659.22;;;11.00;69.27
61874;BME280;49692;55.052;73.310;2022-10-16T03:18:15;100653.00;;;11.03;69.56
61874;BME280;49692;55.052;73.310;2022-10-16T03:20:47;100648.38;;;11.11;69.16
61874;BME280;49692;55.052;73.310;2022-10-16T03:23:29;100651.00;;;11.11;69.26
61874;BME280;49692;55.052;73.310;2022-10-16T03:26:12;100647.34;;;11.15;69.86
61874;BME280;49692;55.052;73.310;2022-10-16T03:28:53;100641.31;;;11.13;68.35
61874;BME280;49692;55.052;73.310;2022-10-16T03:31:49;100640.25;;;11.19;67.70
61874;BME280;49692;55.052;73.310;2022-10-16T03:34:25;100643.00;;;11.14;66.92
61874;BME280;49692;55.052;73.310;2022-10-16T03:36:53;100635.22;;;11.11;67.09
61874;BME280;49692;55.052;73.310;2022-10-16T03:39:26;100632.03;;;11.28;67.29
61874;BME280;49692;55.052;73.310;2022-10-16T03:41:53;100639.63;;;11.37;67.17
61874;BME280;49692;55.052;73.310;2022-10-16T03:44:43;100638.88;;;11.62;64.95
61874;BME280;49692;55.052;73.310;2022-10-16T03:48:22;100631.84;;;11.88;64.03
61874;BME280;49692;55.052;73.310;2022-10-16T03:50:52;100631.50;;;11.99;65.32
61874;BME280;49692;55.052;73.310;2022-10-16T03:53:24;100627.72;;;12.06;64.63
61874;BME280;49692;55.052;73.310;2022-10-16T03:55:59;100635.03;;;12.23;64.92
61874;BME280;49692;55.052;73.310;2022-10-16T03:58:35;100635.22;;;12.19;64.09
61874;BME280;49692;55.052;73.310;2022-10-16T04:01:02;100630.97;;;12.13;62.20
61874;BME280;49692;55.052;73.310;2022-10-16T04:03:29;100627.34;;;12.17;62.52
61874;BME280;49692;55.052;73.310;2022-10-16T04:05:56;100633.34;;;12.21;63.17
61874;BME280;49692;55.052;73.310;2022-10-16T04:08:33;100634.53;;;12.12;61.06
61874;BME280;49692;55.052;73.310;2022-10-16T04:11:03;100634.59;;;12.36;61.26
61874;BME280;49692;55.052;73.310;2022-10-16T04:13:43;100638.38;;;12.52;62.32
61874;BME280;49692;55.052;73.310;2022-10-16T04:16:10;100632.81;;;12.60;60.82
61874;BME280;49692;55.052;73.310;2022-10-16T04:18:39;100630.97;;;12.86;59.52
61874;BME280;49692;55.052;73.310;2022-10-16T04:21:06;100629.41;;;12.80;59.71
61874;BME280;49692;55.052;73.310;2022-10-16T04:23:36;100626.78;;;12.80;58.96
61874;BME280;49692;55.052;73.310;2022-10-16T04:26:11;100624.25;;;12.77;59.02
61874;BME280;49692;55.052;73.310;2022-10-16T04:28:39;100628.09;;;12.68;58.41
61874;BME280;49692;55.052;73.310;2022-10-16T04:31:24;100630.06;;;12.63;58.23
61874;BME280;49692;55.052;73.310;2022-10-16T04:33:58;100633.72;;;12.59;58.04
61874;BME280;49692;55.052;73.310;2022-10-16T04:36:30;100632.59;;;12.42;58.62
61874;BME280;49692;55.052;73.310;2022-10-16T04:39:00;100630.97;;;12.38;57.73
61874;BME280;49692;55.052;73.310;2022-10-16T04:41:27;100632.59;;;12.42;58.84
61874;BME280;49692;55.052;73.310;2022-10-16T04:43:54;100622.38;;;12.33;58.54
61874;BME280;49692;55.052;73.310;2022-10-16T04:46:30;100634.25;;;12.69;57.64
61874;BME280;49692;55.052;73.310;2022-10-16T04:49:01;100621.22;;;12.88;57.52
61874;BME280;49692;55.052;73.310;2022-10-16T04:51:30;100622.66;;;12.95;56.56
61874;BME280;49692;55.052;73.310;2022-10-16T04:54:03;100631.53;;;12.94;56.04
61874;BME280;49692;55.052;73.310;2022-10-16T04:56:39;100625.13;;;13.01;56.44
61874;BME280;49692;55.052;73.310;2022-10-16T04:59:24;100622.28;;;13.06;56.99
61874;BME280;49692;55.052;73.310;2022-10-16T05:01:51;100619.06;;;12.98;55.25
61874;BME280;49692;55.052;73.310;2022-10-16T05:04:18;100619.53;;;13.09;55.19
61874;BME280;49692;55.052;73.310;2022-10-16T05:06:56;100618.06;;;13.02;55.61
61874;BME280;49692;55.052;73.310;2022-10-16T05:09:25;100625.59;;;13.33;55.21
61874;BME280;49692;55.052;73.310;2022-10-16T05:11:55;100616.44;;;13.42;54.27
61874;BME280;49692;55.052;73.310;2022-10-16T05:14:31;100607.78;;;13.61;54.71
61874;BME280;49692;55.052;73.310;2022-10-16T05:17:10;100601.59;;;13.60;54.53
61874;BME280;49692;55.052;73.310;2022-10-16T05:19:43;100616.59;;;13.80;54.01
61874;BME280;49692;55.052;73.310;2022-10-16T05:22:23;100608.50;;;13.64;52.94
61874;BME280;49692;55.052;73.310;2022-10-16T05:24:59;100614.81;;;13.40;54.15
61874;BME280;49692;55.052;73.310;2022-10-16T05:27:30;100604.09;;;13.43;54.00
61874;BME280;49692;55.052;73.310;2022-10-16T05:29:59;100615.88;;;13.56;53.77
61874;BME280;49692;55.052;73.310;2022-10-16T05:32:26;100604.41;;;13.78;54.79
61874;BME280;49692;55.052;73.310;2022-10-16T05:34:54;100605.91;;;13.84;53.13
61874;BME280;49692;55.052;73.310;2022-10-16T05:37:21;100613.69;;;13.66;52.96
61874;BME280;49692;55.052;73.310;2022-10-16T05:39:48;100613.09;;;13.59;52.31
61874;BME280;49692;55.052;73.310;2022-10-16T05:42:15;100617.50;;;13.38;53.46
61874;BME280;49692;55.052;73.310;2022-10-16T05:44:43;100625.66;;;13.75;52.47
61874;BME280;49692;55.052;73.310;2022-10-16T05:47:12;100612.06;;;13.84;52.38
61874;BME280;49692;55.052;73.310;2022-10-16T05:49:40;100606.84;;;14.03;52.75
61874;BME280;49692;55.052;73.310;2022-10-16T05:52:07;100615.16;;;14.15;53.18
61874;BME280;49692;55.052;73.310;2022-10-16T05:54:35;100609.94;;;14.13;52.29
61874;BME280;49692;55.052;73.310;2022-10-16T05:57:03;100608.81;;;13.98;52.61
61874;BME280;49692;55.052;73.310;2022-10-16T05:59:34;100609.41;;;14.05;52.94
61874;BME280;49692;55.052;73.310;2022-10-16T06:02:01;100606.13;;;14.00;54.47
61874;BME280;49692;55.052;73.310;2022-10-16T06:04:29;100602.13;;;14.10;53.64
61874;BME280;49692;55.052;73.310;2022-10-16T06:06:59;100612.91;;;14.05;53.09
61874;BME280;49692;55.052;73.310;2022-10-16T06:09:27;100610.19;;;14.07;53.41
61874;BME280;49692;55.052;73.310;2022-10-16T06:11:55;100605.19;;;14.01;51.92
61874;BME280;49692;55.052;73.310;2022-10-16T06:14:28;100619.19;;;13.82;52.55
61874;BME280;49692;55.052;73.310;2022-10-16T06:16:55;100614.63;;;14.06;54.82
61874;BME280;49692;55.052;73.310;2022-10-16T06:19:23;100616.50;;;14.04;54.31
61874;BME280;49692;55.052;73.310;2022-10-16T06:21:50;100605.50;;;14.14;52.16
61874;BME280;49692;55.052;73.310;2022-10-16T06:24:21;100617.72;;;14.16;52.16
61874;BME280;49692;55.052;73.310;2022-10-16T06:26:49;100610.78;;;14.14;52.61
61874;BME280;49692;55.052;73.310;2022-10-16T06:29:33;100605.84;;;14.06;52.93
61874;BME280;49692;55.052;73.310;2022-10-16T06:32:00;100613.28;;;14.17;53.79
61874;BME280;49692;55.052;73.310;2022-10-16T06:34:26;100608.47;;;14.06;53.51
61874;BME280;49692;55.052;73.310;2022-10-16T06:36:53;100609.25;;;13.46;54.54
61874;BME280;49692;55.052;73.310;2022-10-16T06:39:23;100610.28;;;13.42;55.47
61874;BME280;49692;55.052;73.310;2022-10-16T06:41:50;100602.00;;;13.72;54.47
61874;BME280;49692;55.052;73.310;2022-10-16T06:44:20;100598.31;;;13.96;55.50
61874;BME280;49692;55.052;73.310;2022-10-16T06:46:46;100590.75;;;14.08;55.33
61874;BME280;49692;55.052;73.310;2022-10-16T06:49:13;100588.84;;;14.11;56.21
61874;BME280;49692;55.052;73.310;2022-10-16T06:51:47;100586.63;;;14.02;54.79
61874;BME280;49692;55.052;73.310;2022-10-16T06:54:15;100578.06;;;14.16;53.81
61874;BME280;49692;55.052;73.310;2022-10-16T06:56:42;100579.53;;;14.03;54.73
61874;BME280;49692;55.052;73.310;2022-10-16T06:59:09;100564.25;;;14.09;54.92
61874;BME280;49692;55.052;73.310;2022-10-16T07:01:36;100573.06;;;14.10;55.25
61874;BME280;49692;55.052;73.310;2022-10-16T07:04:02;100567.09;;;14.05;55.25
61874;BME280;49692;55.052;73.310;2022-10-16T07:06:33;100568.72;;;14.28;55.79
61874;BME280;49692;55.052;73.310;2022-10-16T07:09:02;100570.06;;;14.57;55.44
61874;BME280;49692;55.052;73.310;2022-10-16T07:11:31;100575.78;;;14.67;55.40
61874;BME280;49692;55.052;73.310;2022-10-16T07:13:59;100574.50;;;14.94;57.72
61874;BME280;49692;55.052;73.310;2022-10-16T07:16:29;100572.59;;;14.78;55.09
61874;BME280;49692;55.052;73.310;2022-10-16T07:18:59;100574.25;;;14.81;56.28
61874;BME280;49692;55.052;73.310;2022-10-16T07:21:32;100574.53;;;14.75;55.66
61874;BME280;49692;55.052;73.310;2022-10-16T07:24:03;100568.38;;;14.36;56.97
61874;BME280;49692;55.052;73.310;2022-10-16T07:26:36;100566.66;;;14.54;57.58
61874;BME280;49692;55.052;73.310;2022-10-16T07:29:15;100566.63;;;14.55;57.89
61874;BME280;49692;55.052;73.310;2022-10-16T07:31:46;100562.19;;;14.16;59.16
61874;BME280;49692;55.052;73.310;2022-10-16T07:34:14;100565.47;;;14.42;58.74
61874;BME280;49692;55.052;73.310;2022-10-16T07:36:43;100556.53;;;14.64;58.25
61874;BME280;49692;55.052;73.310;2022-10-16T07:39:20;100555.00;;;14.77;56.93
61874;BME280;49692;55.052;73.310;2022-10-16T07:41:48;100543.19;;;14.84;57.39
61874;BME280;49692;55.052;73.310;2022-10-16T07:44:16;100536.66;;;14.74;57.73
61874;BME280;49692;55.052;73.310;2022-10-16T07:46:44;100534.09;;;14.90;57.91
61874;BME280;49692;55.052;73.310;2022-10-16T07:49:14;100530.63;;;15.07;58.21
61874;BME280;49692;55.052;73.310;2022-10-16T07:51:41;100523.78;;;15.03;58.21
61874;BME280;49692;55.052;73.310;2022-10-16T07:54:13;100520.25;;;15.02;58.03
61874;BME280;49692;55.052;73.310;2022-10-16T07:56:40;100526.69;;;14.79;57.79
61874;BME280;49692;55.052;73.310;2022-10-16T07:59:08;100523.94;;;14.63;58.30
61874;BME280;49692;55.052;73.310;2022-10-16T08:01:44;100525.47;;;14.86;60.00
61874;BME280;49692;55.052;73.310;2022-10-16T08:04:11;100514.94;;;14.85;58.77
61874;BME280;49692;55.052;73.310;2022-10-16T08:06:39;100528.25;;;14.83;60.08
61874;BME280;49692;55.052;73.310;2022-10-16T08:09:09;100529.38;;;15.14;63.20
61874;BME280;49692;55.052;73.310;2022-10-16T08:11:37;100521.00;;;15.06;59.95
61874;BME280;49692;55.052;73.310;2022-10-16T08:14:03;100520.13;;;15.06;58.66
61874;BME280;49692;55.052;73.310;2022-10-16T08:16:31;100530.91;;;14.83;58.54
61874;BME280;49692;55.052;73.310;2022-10-16T08:18:59;100525.13;;;14.75;58.13
61874;BME280;49692;55.052;73.310;2022-10-16T08:21:29;100529.59;;;14.92;58.56
61874;BME280;49692;55.052;73.310;2022-10-16T08:24:11;100529.44;;;14.59;60.40
61874;BME280;49692;55.052;73.310;2022-10-16T08:26:38;100531.72;;;14.66;59.57
61874;BME280;49692;55.052;73.310;2022-10-16T08:29:05;100521.19;;;14.65;59.15
61874;BME280;49692;55.052;73.310;2022-10-16T08:31:37;100526.56;;;14.63;59.29
61874;BME280;49692;55.052;73.310;2022-10-16T08:34:04;100529.13;;;14.84;59.96
61874;BME280;49692;55.052;73.310;2022-10-16T08:36:33;100524.53;;;14.87;58.95
61874;BME280;49692;55.052;73.310;2022-10-16T08:39:00;100517.66;;;14.83;59.00
61874;BME280;49692;55.052;73.310;2022-10-16T08:49:59;100510.53;;;15.03;60.74
61874;BME280;49692;55.052;73.310;2022-10-16T08:52:32;100507.34;;;14.96;59.59
61874;BME280;49692;55.052;73.310;2022-10-16T08:55:02;100513.38;;;14.44;60.17
61874;BME280;49692;55.052;73.310;2022-10-16T08:57:34;100506.03;;;14.30;60.45
61874;BME280;49692;55.052;73.310;2022-10-16T09:00:12;100510.75;;;14.23;60.79
61874;BME280;49692;55.052;73.310;2022-10-16T09:02:58;100504.53;;;14.24;60.69
61874;BME280;49692;55.052;73.310;2022-10-16T09:05:45;100506.16;;;14.27;61.41
61874;BME280;49692;55.052;73.310;2022-10-16T09:12:38;100506.13;;;14.48;60.38
61874;BME280;49692;55.052;73.310;2022-10-16T09:15:13;100499.03;;;14.67;60.39
61874;BME280;49692;55.052;73.310;2022-10-16T09:18:05;100502.91;;;14.60;60.17
61874;BME280;49692;55.052;73.310;2022-10-16T09:20:49;100504.44;;;14.83;60.09
61874;BME280;49692;55.052;73.310;2022-10-16T09:23:29;100508.81;;;15.02;58.57
61874;BME280;49692;55.052;73.310;2022-10-16T09:26:00;100505.50;;;14.79;58.57
61874;BME280;49692;55.052;73.310;2022-10-16T09:28:31;100503.00;;;14.59;59.13
61874;BME280;49692;55.052;73.310;2022-10-16T09:31:04;100509.81;;;14.63;58.83
61874;BME280;49692;55.052;73.310;2022-10-16T09:33:36;100506.50;;;14.40;59.40
61874;BME280;49692;55.052;73.310;2022-10-16T09:36:06;100509.56;;;14.31;59.96
61874;BME280;49692;55.052;73.310;2022-10-16T09:38:35;100505.09;;;14.31;60.52
61874;BME280;49692;55.052;73.310;2022-10-16T09:41:17;100494.19;;;14.20;60.65
61874;BME280;49692;55.052;73.310;2022-10-16T09:43:57;100505.72;;;13.98;62.03
61874;BME280;49692;55.052;73.310;2022-10-16T09:46:31;100494.56;;;13.91;62.60
61874;BME280;49692;55.052;73.310;2022-10-16T09:49:26;100493.56;;;13.94;61.98
61874;BME280;49692;55.052;73.310;2022-10-16T09:52:04;100495.84;;;13.83;63.03
61874;BME280;49692;55.052;73.310;2022-10-16T09:54:32;100500.63;;;13.74;64.01
61874;BME280;49692;55.052;73.310;2022-10-16T09:57:13;100494.41;;;13.75;63.68
61874;BME280;49692;55.052;73.310;2022-10-16T09:59:52;100493.91;;;13.86;63.15
61874;BME280;49692;55.052;73.310;2022-10-16T10:02:33;100481.78;;;13.82;63.56
61874;BME280;49692;55.052;73.310;2022-10-16T10:05:01;100496.56;;;13.86;63.33
61874;BME280;49692;55.052;73.310;2022-10-16T10:07:35;100495.16;;;14.17;63.25
61874;BME280;49692;55.052;73.310;2022-10-16T10:10:20;100485.47;;;13.99;64.67
61874;BME280;49692;55.052;73.310;2022-10-16T10:12:49;100484.44;;;13.82;64.89
61874;BME280;49692;55.052;73.310;2022-10-16T10:15:17;100486.06;;;13.85;66.58
61874;BME280;49692;55.052;73.310;2022-10-16T10:17:54;100501.88;;;13.65;68.13
61874;BME280;49692;55.052;73.310;2022-10-16T10:20:34;100490.78;;;13.57;68.14
61874;BME280;49692;55.052;73.310;2022-10-16T10:23:22;100487.72;;;13.47;68.93
61874;BME280;49692;55.052;73.310;2022-10-16T10:25:59;100473.78;;;13.23;69.01
61874;BME280;49692;55.052;73.310;2022-10-16T10:39:24;100490.06;;;13.12;66.32
61874;BME280;49692;55.052;73.310;2022-10-16T10:48:13;100489.59;;;13.02;69.75
61874;BME280;49692;55.052;73.310;2022-10-16T10:51:05;100485.41;;;12.97;69.77
61874;BME280;49692;55.052;73.310;2022-10-16T10:53:47;100471.59;;;12.90;69.63
61874;BME280;49692;55.052;73.310;2022-10-16T10:56:50;100473.03;;;12.99;69.88
61874;BME280;49692;55.052;73.310;2022-10-16T10:59:47;100474.97;;;12.94;70.71
61874;BME280;49692;55.052;73.310;2022-10-16T11:08:38;100467.13;;;12.92;72.05
61874;BME280;49692;55.052;73.310;2022-10-16T11:11:43;100465.03;;;12.78;72.97
61874;BME280;49692;55.052;73.310;2022-10-16T11:14:37;100456.81;;;12.86;73.81
61874;BME280;49692;55.052;73.310;2022-10-16T11:17:17;100448.38;;;12.78;73.31
61874;BME280;49692;55.052;73.310;2022-10-16T11:23:00;100463.28;;;12.79;74.56
61874;BME280;49692;55.052;73.310;2022-10-16T11:25:32;100456.53;;;12.71;74.51
61874;BME280;49692;55.052;73.310;2022-10-16T11:28:17;100452.03;;;12.73;74.06
61874;BME280;49692;55.052;73.310;2022-10-16T11:30:57;100447.56;;;12.76;74.05
61874;BME280;49692;55.052;73.310;2022-10-16T11:33:39;100452.78;;;12.55;73.35
61874;BME280;49692;55.052;73.310;2022-10-16T11:36:23;100456.16;;;12.58;73.94
61874;BME280;49692;55.052;73.310;2022-10-16T11:39:21;100446.34;;;12.62;73.39
61874;BME280;49692;55.052;73.310;2022-10-16T11:41:55;100449.63;;;12.47;74.76
61874;BME280;49692;55.052;73.310;2022-10-16T11:49:55;100442.94;;;12.38;74.96
61874;BME280;49692;55.052;73.310;2022-10-16T11:52:43;100446.59;;;12.34;75.04
61874;BME280;49692;55.052;73.310;2022-10-16T11:55:17;100435.50;;;12.25;75.92
61874;BME280;49692;55.052;73.310;2022-10-16T11:57:57;100434.91;;;12.41;76.91
61874;BME280;49692;55.052;73.310;2022-10-16T12:00:34;100429.56;;;12.42;76.63
61874;BME280;49692;55.052;73.310;2022-10-16T12:03:31;100423.78;;;12.33;74.54
61874;BME280;49692;55.052;73.310;2022-10-16T12:06:23;100434.41;;;12.31;75.37
61874;BME280;49692;55.052;73.310;2022-10-16T12:08:55;100425.41;;;12.13;75.72
61874;BME280;49692;55.052;73.310;2022-10-16T12:11:34;100424.34;;;12.19;75.04
61874;BME280;49692;55.052;73.310;2022-10-16T12:16:56;100426.97;;;12.19;74.41
61874;BME280;49692;55.052;73.310;2022-10-16T12:19:30;100424.25;;;11.98;73.93
61874;BME280;49692;55.052;73.310;2022-10-16T12:22:04;100411.66;;;11.82;74.50
61874;BME280;49692;55.052;73.310;2022-10-16T12:24:51;100418.88;;;12.01;74.66
61874;BME280;49692;55.052;73.310;2022-10-16T12:27:41;100422.16;;;12.06;74.29
61874;BME280;49692;55.052;73.310;2022-10-16T12:30:22;100422.00;;;12.11;73.90
61874;BME280;49692;55.052;73.310;2022-10-16T12:33:24;100408.19;;;12.04;74.31
61874;BME280;49692;55.052;73.310;2022-10-16T12:36:02;100412.69;;;12.02;74.72
61874;BME280;49692;55.052;73.310;2022-10-16T12:38:51;100421.13;;;12.10;75.07
61874;BME280;49692;55.052;73.310;2022-10-16T12:41:32;100408.88;;;12.09;75.32
61874;BME280;49692;55.052;73.310;2022-10-16T12:44:02;100418.06;;;11.99;75.53
61874;BME280;49692;55.052;73.310;2022-10-16T12:51:43;100407.84;;;11.90;76.95
61874;BME280;49692;55.052;73.310;2022-10-16T12:54:17;100411.06;;;11.98;76.28
61874;BME280;49692;55.052;73.310;2022-10-16T12:56:54;100422.41;;;12.00;75.42
61874;BME280;49692;55.052;73.310;2022-10-16T12:59:41;100425.06;;;12.00;74.96
61874;BME280;49692;55.052;73.310;2022-10-16T13:05:26;100418.28;;;11.93;75.37
61874;BME280;49692;55.052;73.310;2022-10-16T13:25:46;100404.84;;;11.53;80.17
61874;BME280;49692;55.052;73.310;2022-10-16T13:28:28;100404.09;;;11.49;80.62
61874;BME280;49692;55.052;73.310;2022-10-16T13:31:03;100407.13;;;11.37;80.61
61874;BME280;49692;55.052;73.310;2022-10-16T13:33:37;100406.44;;;11.32;81.33
61874;BME280;49692;55.052;73.310;2022-10-16T13:36:34;100408.63;;;11.46;80.86
61874;BME280;49692;55.052;73.310;2022-10-16T13:40:33;100407.25;;;11.34;80.46
61874;BME280;49692;55.052;73.310;2022-10-16T13:43:14;100411.81;;;11.29;80.01
61874;BME280;49692;55.052;73.310;2022-10-16T13:46:02;100408.91;;;11.36;79.97
61874;BME280;49692;55.052;73.310;2022-10-16T13:48:55;100404.84;;;11.28;79.19
61874;BME280;49692;55.052;73.310;2022-10-16T13:51:34;100406.78;;;11.22;79.67
61874;BME280;49692;55.052;73.310;2022-10-16T13:54:11;100400.97;;;11.13;79.35
61874;BME280;49692;55.052;73.310;2022-10-16T13:56:41;100403.44;;;11.17;79.46
61874;BME280;49692;55.052;73.310;2022-10-16T13:59:27;100399.09;;;11.16;79.19
61874;BME280;49692;55.052;73.310;2022-10-16T14:02:04;100389.91;;;11.03;79.95
61874;BME280;49692;55.052;73.310;2022-10-16T14:04:42;100408.31;;;11.03;79.68
61874;BME280;49692;55.052;73.310;2022-10-16T14:07:39;100401.13;;;11.08;79.16
61874;BME280;49692;55.052;73.310;2022-10-16T14:10:34;100399.31;;;11.10;79.74
61874;BME280;49692;55.052;73.310;2022-10-16T14:13:17;100405.25;;;11.15;79.45
61874;BME280;49692;55.052;73.310;2022-10-16T14:15:53;100390.91;;;10.99;79.78
61874;BME280;49692;55.052;73.310;2022-10-16T14:18:28;100389.75;;;11.07;79.25
61874;BME280;49692;55.052;73.310;2022-10-16T14:21:06;100403.16;;;11.25;81.37
61874;BME280;49692;55.052;73.310;2022-10-16T14:23:36;100399.25;;;11.12;79.20
61874;BME280;49692;55.052;73.310;2022-10-16T14:26:17;100381.19;;;11.02;79.56
61874;BME280;49692;55.052;73.310;2022-10-16T14:29:17;100389.63;;;11.11;79.50
61874;BME280;49692;55.052;73.310;2022-10-16T14:32:02;100389.81;;;11.06;79.55
61874;BME280;49692;55.052;73.310;2022-10-16T14:34:38;100386.63;;;10.96;79.30
61874;BME280;49692;55.052;73.310;2022-10-16T14:39:51;100383.16;;;10.69;80.04
61874;BME280;49692;55.052;73.310;2022-10-16T14:42:25;100383.31;;;10.64;80.59
61874;BME280;49692;55.052;73.310;2022-10-16T14:44:58;100388.00;;;10.56;80.58
61874;BME280;49692;55.052;73.310;2022-10-16T14:47:55;100396.72;;;10.56;80.38
61874;BME280;49692;55.052;73.310;2022-10-16T14:50:31;100391.88;;;10.44;81.21
61874;BME280;49692;55.052;73.310;2022-10-16T14:53:01;100387.50;;;10.44;80.66
61874;BME280;49692;55.052;73.310;2022-10-16T14:55:31;100385.97;;;10.37;80.60
61874;BME280;49692;55.052;73.310;2022-10-16T14:57:58;100388.44;;;10.42;81.03
61874;BME280;49692;55.052;73.310;2022-10-16T15:00:25;100383.16;;;10.42;80.36
61874;BME280;49692;55.052;73.310;2022-10-16T15:02:57;100379.78;;;10.38;80.75
61874;BME280;49692;55.052;73.310;2022-10-16T15:05:26;100374.47;;;10.40;80.84
61874;BME280;49692;55.052;73.310;2022-10-16T15:07:54;100370.00;;;10.43;81.42